22:45
Airports
Links
Donate
Help keep this website running!
PayPal
Bitcoin
METAR
RJAA 222230Z 32004KT 280V030 8000 FEW008 27/25 Q1011 NOSIG RMK 1ST008 A2986
Current Weather Conditions at RJAA
MVFR 22:30:00 22-08-17
Altimeter:29.85 hg
Temp:27.0°c 81°f
Dew point:25.0°c 77°f
Wind:4 knots, 4.6 mph, 2 m/s, from 320°
Visibility:4.97 statute miles
800(FEW) A few
No significant weather changes expected within 2 hours.
Past METAR reports
MVFR 22:10:00 22-08-17
Altimeter:29.85 hg
Temp:26.0°c 79°f
Dew point:25.0°c 77°f
Wind:4 knots, 4.6 mph, 2 m/s, from 330°
Visibility:3.73 statute miles
800(SCT) Scattered
RJAA 222210Z 33004KT 290V360 6000 BR SCT008 26/25 Q1011 RMK 3ST008 A2987 BR N-E
IFR 22:00:00 22-08-17
Altimeter:29.85 hg
Temp:26.0°c 79°f
Dew point:26.0°c 79°f
Wind:4 knots, 4.6 mph, 2 m/s, from 330°
Visibility:2.49 statute miles
800(BKN) Broken
300(FEW) A few
RJAA 222200Z 33004KT 4000 BR FEW003 BKN008 26/26 Q1011 BECMG 7000 NSW FEW010 SCT030
LIFR 21:45:00 22-08-17
Altimeter:29.85 hg
Temp:26.0°c 79°f
Dew point:25.0°c 77°f
Wind:5 knots, 5.8 mph, 3 m/s, from 320°
Visibility:1.55 statute miles
400(BKN) Broken
100(FEW) A few
RJAA 222145Z 32005KT 2500 BR FEW001 BKN004 26/25 Q1011 RMK 1ST001 7ST004 A2986
LIFR 21:30:00 22-08-17
Altimeter:29.85 hg
Temp:26.0°c 79°f
Dew point:25.0°c 77°f
Wind:5 knots, 5.8 mph, 3 m/s, from 320°
Visibility:1.24 statute miles
300(BKN) Broken
100(FEW) A few
RJAA 222130Z 32005KT 2000 BR FEW001 BKN003 26/25 Q1011 BECMG 7000 NSW FEW010 SCT030
LIFR 21:22:00 22-08-17
Altimeter:29.85 hg
Temp:26.0°c 79°f
Dew point:25.0°c 77°f
Wind:5 knots, 5.8 mph, 3 m/s, from 310°
Visibility:1.24 statute miles
300(BKN) Broken
100(FEW) A few
RJAA 222122Z 31005KT 2000 BR FEW001 BKN003 26/25 Q1011 RMK 1ST001 7ST003 A2987
LIFR 21:00:00 22-08-17
Altimeter:29.85 hg
Temp:25.0°c 77°f
Dew point:25.0°c 77°f
Wind:3 knots, 3.5 mph, 2 m/s, from 310°
Visibility:1.24 statute miles
200(BKN) Broken
100(FEW) A few
RJAA 222100Z 31003KT 2000 R34L/P1800N R34R/P1800N BR FEW001 BKN002 25/25 Q1011 BECMG 7000 NSW FEW010 SCT030
TAF
TAF AMD RJAA 221916Z 2219/2400 30006KT 3000 BR BKN008 BECMG 2220/2222 9999 NSW FEW020 SCT040 BECMG 2306/2309 12008KT BECMG 2312/2315 05004KT
Forecast at RJAA
19:00 22-08-17 to 20:00 22-08-17
BR
Wind:6 Knots from 300°
Visibility:1.86 statute miles
800BKN Broken
BECMG 20:00 22-08-17 to 06:00 23-08-17
NSW
Wind:6 Knots from 300°
Visibility:6.21 statute miles
2000FEW A few
4000SCT Scattered
BECMG 06:00 23-08-17 to 12:00 23-08-17
NSW
Wind:8 Knots from 120°
Visibility:6.21 statute miles
2000FEW A few
4000SCT Scattered
BECMG 12:00 23-08-17 to 00:00 24-08-17
NSW
Wind:4 Knots from 50°
Visibility:6.21 statute miles
2000FEW A few
4000SCT Scattered